Westview, New York
Current Conditions -  °F | °C
As of 7:07 AM on Sunday 28 Dec 2014 (Local Time) from KBGM Reporting Station
Moderate Fog Moderate Fog  
Wind Chill: 36°   Ceiling: 200
Heat Index: 41°   Visibility: 0.5mi
Dew Point: 41°   Wind: 8mph
Humidity: 100%   Direction: 230°SW
Pressure: 29.84"   Gusts: NA
Location:  42.1759°N, 75.9402°W
Report Text: KBGM 281207Z 23007KT 1/2SM FG VV002 05/05 A2984 RMK AO2 RAE07 P0000 T00500050 RVRNO
Loading
Personal Weather Stations






























Interactive Weather Map New forecast layout! Learn more

10-Day Weather Forecast

Advertisements
Track Severe Weather on mobile